createdAt,value
2023-05-06T00:04:22.204Z,101253.32
2023-05-06T00:09:25.125Z,101247.52
2023-05-06T00:14:28.070Z,101243.34
2023-05-06T00:19:31.344Z,101244.20
2023-05-06T00:24:34.049Z,101243.77
2023-05-06T00:29:36.851Z,101249.28
2023-05-06T00:34:39.713Z,101254.65
2023-05-06T00:39:42.561Z,101253.48
2023-05-06T00:44:45.403Z,101247.84
2023-05-06T00:49:48.420Z,101256.15
2023-05-06T00:54:51.378Z,101261.04
2023-05-06T00:59:54.693Z,101270.30
2023-05-06T01:04:57.455Z,101271.98
2023-05-06T01:10:00.341Z,101276.11
2023-05-06T01:15:12.005Z,101275.54
2023-05-06T01:20:15.570Z,101282.17
2023-05-06T01:25:22.443Z,101279.61
2023-05-06T01:30:31.871Z,101279.98
2023-05-06T01:35:53.665Z,101277.61
2023-05-06T01:40:58.475Z,101277.77
2023-05-06T01:46:02.512Z,101277.43
2023-05-06T01:51:05.639Z,101281.24
2023-05-06T01:56:09.258Z,101278.21
2023-05-06T02:01:12.097Z,101271.70
2023-05-06T02:06:14.908Z,101273.72
2023-05-06T02:11:17.883Z,101275.20
2023-05-06T02:16:22.160Z,101284.30
2023-05-06T02:21:25.087Z,101287.88
2023-05-06T02:26:27.932Z,101288.67
2023-05-06T02:31:32.175Z,101292.16
2023-05-06T02:36:34.991Z,101292.02
2023-05-06T02:41:37.749Z,101287.46
2023-05-06T02:46:40.579Z,101289.23
2023-05-06T02:51:43.468Z,101285.73
2023-05-06T02:56:46.521Z,101284.45
2023-05-06T03:01:49.720Z,101275.52
2023-05-06T03:06:52.520Z,101277.39
2023-05-06T03:11:56.927Z,101272.39
2023-05-06T03:16:59.892Z,101275.20
2023-05-06T03:22:03.103Z,101282.42
2023-05-06T03:27:05.942Z,101276.92
2023-05-06T03:32:08.832Z,101269.79
2023-05-06T03:37:11.730Z,101263.36
2023-05-06T03:42:14.867Z,101263.52
2023-05-06T03:47:17.781Z,101266.97
2023-05-06T03:52:21.143Z,101271.66
2023-05-06T03:57:24.065Z,101279.29
2023-05-06T04:02:27.039Z,101279.17
2023-05-06T04:07:31.273Z,101284.20
2023-05-06T04:12:34.411Z,101288.34
2023-05-06T04:17:37.231Z,101283.91
2023-05-06T04:22:40.096Z,101281.84
2023-05-06T04:27:42.881Z,101279.05
2023-05-06T04:32:46.206Z,101276.74
2023-05-06T04:37:49.046Z,101269.88
2023-05-06T04:42:52.507Z,101263.52
2023-05-06T04:47:55.526Z,101263.88
2023-05-06T04:52:58.341Z,101266.48
2023-05-06T04:58:01.132Z,101259.16
2023-05-06T05:03:04.148Z,101260.20
2023-05-06T05:08:07.075Z,101261.56
2023-05-06T05:13:10.068Z,101260.49
2023-05-06T05:18:13.192Z,101259.73
2023-05-06T05:23:16.333Z,101252.70
2023-05-06T05:28:19.155Z,101252.96
2023-05-06T05:33:22.011Z,101245.16
2023-05-06T05:38:24.964Z,101241.85
2023-05-06T05:43:27.775Z,101237.17
2023-05-06T05:48:32.800Z,101241.70
2023-05-06T05:53:35.722Z,101238.19
2023-05-06T05:58:38.802Z,101231.90
2023-05-06T06:03:42.192Z,101227.30
2023-05-06T06:08:45.243Z,101225.42
2023-05-06T06:13:48.051Z,101226.73
2023-05-06T06:18:51.137Z,101220.79
2023-05-06T06:23:53.919Z,101219.29
2023-05-06T06:28:56.737Z,101217.83
2023-05-06T06:33:59.545Z,101220.23
2023-05-06T06:39:02.398Z,101213.39
2023-05-06T06:44:06.146Z,101212.95
2023-05-06T06:49:08.956Z,101220.89
2023-05-06T06:54:11.760Z,101215.80
2023-05-06T06:59:14.830Z,101210.41
2023-05-06T07:04:17.695Z,101207.48
2023-05-06T07:09:20.620Z,101205.13
2023-05-06T07:14:23.427Z,101207.54
2023-05-06T07:19:26.567Z,101202.39
2023-05-06T07:24:29.271Z,101199.41
2023-05-06T07:29:32.189Z,101200.91
2023-05-06T07:34:36.211Z,101196.73
2023-05-06T07:39:39.044Z,101188.39
2023-05-06T07:44:41.817Z,101186.72
2023-05-06T07:49:44.673Z,101187.05
2023-05-06T07:54:47.561Z,101190.98
2023-05-06T07:59:51.662Z,101189.52
2023-05-06T08:04:54.601Z,101188.48
2023-05-06T08:09:57.922Z,101191.45
2023-05-06T08:15:00.963Z,101196.18
2023-05-06T08:20:04.047Z,101192.09
2023-05-06T08:25:07.426Z,101190.64
2023-05-06T08:30:10.933Z,101185.45
2023-05-06T08:35:14.092Z,101180.77
2023-05-06T08:40:22.090Z,101167.10
2023-05-06T08:45:27.405Z,101161.55
2023-05-06T08:50:33.462Z,101154.84
2023-05-06T08:55:37.340Z,101151.15
2023-05-06T09:00:40.587Z,101151.27
2023-05-06T09:05:43.571Z,101145.90
2023-05-06T09:10:47.470Z,101136.64
2023-05-06T09:15:54.461Z,101136.13
2023-05-06T09:20:59.393Z,101133.66
2023-05-06T09:26:03.742Z,101126.96
2023-05-06T09:31:07.132Z,101123.84
2023-05-06T09:36:13.481Z,101119.23
2023-05-06T09:41:21.148Z,101116.31
2023-05-06T09:46:25.519Z,101112.37
2023-05-06T09:51:28.696Z,101110.31
2023-05-06T09:56:31.990Z,101116.83
2023-05-06T10:01:37.585Z,101113.35
2023-05-06T10:06:41.066Z,101107.70
2023-05-06T10:11:45.569Z,101101.66
2023-05-06T10:16:49.645Z,101106.68
2023-05-06T10:22:04.444Z,101102.37
2023-05-06T10:27:12.261Z,101097.02
2023-05-06T10:32:17.467Z,101095.99
2023-05-06T10:37:25.989Z,101089.63
2023-05-06T10:42:34.103Z,101085.08
2023-05-06T10:47:56.098Z,101081.92
2023-05-06T10:52:59.314Z,101077.94
2023-05-06T10:58:12.711Z,101075.13
2023-05-06T11:03:23.845Z,101070.83
2023-05-06T11:08:27.302Z,101068.02
2023-05-06T11:13:35.153Z,101067.71
2023-05-06T11:18:41.714Z,101066.66
2023-05-06T11:23:54.821Z,101068.00
2023-05-06T11:29:06.041Z,101067.39
2023-05-06T11:34:11.447Z,101060.60
2023-05-06T11:39:14.618Z,101061.91
2023-05-06T11:44:25.443Z,101055.94
2023-05-06T11:49:28.360Z,101053.52
2023-05-06T11:54:36.986Z,101052.86
2023-05-06T11:59:41.285Z,101053.98
2023-05-06T12:04:50.233Z,101053.32
2023-05-06T12:09:53.379Z,101049.08
2023-05-06T12:14:56.721Z,101050.40
2023-05-06T12:19:59.860Z,101045.33
2023-05-06T12:25:14.253Z,101038.35
2023-05-06T12:30:29.309Z,101034.89
2023-05-06T12:35:32.711Z,101031.38
2023-05-06T12:40:36.090Z,101032.06
2023-05-06T12:45:39.970Z,101028.90
2023-05-06T12:50:45.031Z,101027.08
2023-05-06T12:55:47.840Z,101026.81
2023-05-06T13:00:50.622Z,101024.00
2023-05-06T13:05:53.520Z,101027.45
2023-05-06T13:10:56.499Z,101024.23
2023-05-06T13:15:59.532Z,101022.34
2023-05-06T13:21:02.453Z,101021.30
2023-05-06T13:26:06.235Z,101022.01
2023-05-06T13:31:09.366Z,101020.71
2023-05-06T13:36:12.259Z,101018.32
2023-05-06T13:41:14.985Z,101012.33
2023-05-06T13:46:17.885Z,101011.08
2023-05-06T13:51:20.980Z,101003.91
2023-05-06T13:56:23.817Z,101003.83
2023-05-06T14:01:26.681Z,101011.23
2023-05-06T14:06:29.510Z,101012.49
2023-05-06T14:11:32.341Z,101010.83
2023-05-06T14:16:35.272Z,101008.39
2023-05-06T14:21:38.056Z,101008.36
2023-05-06T14:26:41.520Z,101005.91
2023-05-06T14:31:45.354Z,101001.83
2023-05-06T14:36:48.164Z,100996.73
2023-05-06T14:41:51.243Z,100991.86
2023-05-06T14:46:54.046Z,100987.11
2023-05-06T14:51:58.034Z,100984.35
2023-05-06T14:57:03.181Z,100981.31
2023-05-06T15:02:09.300Z,100980.00
2023-05-06T15:07:12.427Z,100982.50
2023-05-06T15:12:15.436Z,100988.38
2023-05-06T15:17:18.287Z,100990.05
2023-05-06T15:22:20.975Z,100990.00
2023-05-06T15:27:23.847Z,100988.25
2023-05-06T15:32:27.043Z,100990.97
2023-05-06T15:37:29.840Z,100987.77
2023-05-06T15:42:32.673Z,100986.80
2023-05-06T15:47:35.502Z,100987.38
2023-05-06T15:52:38.365Z,100985.27
2023-05-06T15:57:43.235Z,100981.35
2023-05-06T16:02:46.444Z,100985.13
2023-05-06T16:07:49.823Z,100983.94
2023-05-06T16:12:54.094Z,100987.13
2023-05-06T16:17:57.092Z,100991.45
2023-05-06T16:23:00.182Z,100991.56
2023-05-06T16:28:03.645Z,100993.23
2023-05-06T16:33:06.644Z,100993.40
2023-05-06T16:38:09.449Z,100997.80
2023-05-06T16:43:12.313Z,100997.17
2023-05-06T16:48:16.032Z,100999.33
2023-05-06T16:53:19.031Z,100997.05
2023-05-06T17:03:24.827Z,100997.95
2023-05-06T17:08:27.724Z,100999.19
2023-05-06T17:13:30.658Z,100993.73
2023-05-06T17:18:33.532Z,100996.54
2023-05-06T17:23:36.449Z,100996.55
2023-05-06T17:28:39.300Z,100992.71
2023-05-06T17:33:42.142Z,100991.48
2023-05-06T17:38:45.271Z,100992.54
2023-05-06T17:43:47.997Z,100994.17
2023-05-06T17:48:50.848Z,100994.60
2023-05-06T17:53:57.677Z,100992.90
2023-05-06T17:59:14.676Z,100996.00
2023-05-06T18:04:18.620Z,101001.66
2023-05-06T18:09:21.830Z,101001.73
2023-05-06T18:14:24.781Z,101005.61
2023-05-06T18:19:27.689Z,101011.71
2023-05-06T18:24:30.996Z,101012.55
2023-05-06T18:29:34.935Z,101015.33
2023-05-06T18:34:37.728Z,101016.02
2023-05-06T18:39:45.533Z,101020.52
2023-05-06T18:44:50.481Z,101019.06
2023-05-06T18:49:53.535Z,101023.98
2023-05-06T18:54:56.444Z,101027.27
2023-05-06T18:59:59.292Z,101028.59
2023-05-06T19:05:02.183Z,101036.04
2023-05-06T19:10:11.504Z,101041.30
2023-05-06T19:15:14.731Z,101040.81
2023-05-06T19:20:17.668Z,101042.38
2023-05-06T19:25:20.978Z,101044.98
2023-05-06T19:30:23.794Z,101047.77
2023-05-06T19:35:26.893Z,101047.45
2023-05-06T19:40:29.706Z,101042.77
2023-05-06T19:45:33.886Z,101044.72
2023-05-06T19:50:36.824Z,101047.20
2023-05-06T19:55:39.663Z,101048.95
2023-05-06T20:00:42.556Z,101047.05
2023-05-06T20:05:45.433Z,101052.10
2023-05-06T20:10:48.536Z,101055.27
2023-05-06T20:15:51.366Z,101059.45
2023-05-06T20:20:54.187Z,101059.48
2023-05-06T20:25:57.199Z,101062.09
2023-05-06T20:31:00.144Z,101056.45
2023-05-06T20:36:04.077Z,101054.85
2023-05-06T20:41:07.092Z,101055.86
2023-05-06T20:46:10.484Z,101049.91
2023-05-06T20:51:13.684Z,101049.38
2023-05-06T20:56:22.902Z,101048.80
2023-05-06T21:01:27.273Z,101054.82
2023-05-06T21:06:30.384Z,101053.86
2023-05-06T21:11:33.248Z,101052.89
2023-05-06T21:16:36.117Z,101059.75
2023-05-06T21:21:38.967Z,101065.73
2023-05-06T21:26:41.866Z,101063.19
2023-05-06T21:31:44.685Z,101060.13
2023-05-06T21:36:47.509Z,101062.42
2023-05-06T21:41:50.360Z,101061.10
2023-05-06T21:46:53.208Z,101064.64
2023-05-06T21:51:56.442Z,101070.61
2023-05-06T21:56:59.152Z,101073.77
2023-05-06T22:02:03.382Z,101075.20
2023-05-06T22:07:07.185Z,101076.48
2023-05-06T22:12:11.819Z,101078.61
2023-05-06T22:17:15.790Z,101078.67
2023-05-06T22:22:18.687Z,101076.46
2023-05-06T22:27:21.563Z,101073.39
2023-05-06T22:32:24.426Z,101074.31
2023-05-06T22:37:27.377Z,101075.95
2023-05-06T22:42:30.147Z,101077.42
2023-05-06T22:47:33.030Z,101080.44
2023-05-06T22:52:35.931Z,101081.39
2023-05-06T22:57:38.780Z,101084.27
2023-05-06T23:02:41.731Z,101087.60
2023-05-06T23:07:44.649Z,101096.52
2023-05-06T23:12:47.522Z,101097.62
2023-05-06T23:17:50.499Z,101098.69
2023-05-06T23:22:53.417Z,101098.03
2023-05-06T23:27:56.319Z,101102.07
2023-05-06T23:32:59.219Z,101102.10
2023-05-06T23:38:02.085Z,101106.65
2023-05-06T23:43:09.994Z,101109.09
2023-05-06T23:48:12.904Z,101106.48
2023-05-06T23:53:15.874Z,101105.10
2023-05-06T23:58:18.706Z,101104.41
